Date,TemperatureHighF,TemperatureAvgF,TemperatureLowF,DewpointHighF,DewpointAvgF,DewpointLowF,HumidityHigh,HumidityAvg,HumidityLow,PressureMaxIn,PressureMinIn,WindSpeedMaxMPH,WindSpeedAvgMPH,GustSpeedMaxMPH,PrecipitationSumIn
2013-8-1,75.4,63.8,55.8,57.2,51.3,45.7,95,65,45,29.87,29.79,2,0,5,0.17
2013-8-2,61.3,57.7,55.0,58.5,56.2,54.0,97,95,87,30.03,29.85,2,0,3,0.74
2013-8-3,77.7,64.6,56.1,59.9,56.5,54.9,98,78,47,30.07,29.96,3,0,6,0.02
2013-8-4,67.5,56.4,52.0,58.6,53.9,51.1,98,92,71,30.01,29.98,1,0,2,0.00
2013-8-8,86.9,74.9,66.0,55.2,52.3,46.8,65,47,25,29.77,29.75,1,0,1,0.00
2013-8-9,90.1,77.6,59.2,61.9,56.4,53.2,81,51,32,29.80,29.67,7,1,11,0.11
2013-8-10,90.0,74.1,62.1,62.2,58.0,50.9,93,61,29,29.85,29.72,6,0,12,0.23
2013-8-11,89.1,76.3,62.2,59.9,56.0,52.3,74,51,34,29.88,29.76,2,0,6,0.00
2013-8-12,89.4,74.7,58.6,60.6,56.0,51.8,85,56,30,29.89,29.79,3,0,3,0.00
2013-8-13,88.0,76.0,63.1,59.5,52.0,46.9,66,46,26,29.96,29.85,3,0,6,0.00
2013-8-14,90.0,75.1,55.0,60.4,54.7,47.8,90,53,24,29.89,29.73,7,1,9,0.00
2013-8-15,91.0,76.0,64.4,54.5,51.0,47.7,67,44,24,29.85,29.75,2,0,4,0.00
2013-8-16,87.6,77.9,64.6,55.9,51.5,46.9,64,41,25,29.88,29.83,3,0,5,0.00
2013-8-17,87.1,74.4,61.5,58.6,53.3,49.1,76,50,31,29.93,29.80,3,0,7,0.00
2013-8-18,86.7,71.7,58.8,53.6,49.1,44.8,70,48,25,29.98,29.86,3,0,9,0.00
2013-8-19,85.3,73.0,61.2,52.3,47.4,43.7,61,42,26,29.93,29.81,4,0,9,0.00
2013-8-20,84.6,69.5,57.2,47.8,41.7,31.8,64,40,15,29.96,29.85,3,0,6,0.00
2013-8-21,87.3,66.7,45.9,47.3,41.5,35.4,78,44,19,30.03,29.89,5,0,9,0.00
2013-8-22,90.7,70.7,52.0,50.0,46.1,41.5,71,45,21,29.92,29.70,9,0,9,0.00
2013-8-23,82.2,72.7,64.2,56.7,52.7,49.3,66,50,36,29.75,29.66,2,0,11,0.00
2013-8-24,84.6,69.9,55.4,55.6,51.5,43.5,85,55,29,29.79,29.64,3,0,5,0.01
2013-8-25,84.2,70.2,57.9,58.1,54.6,49.6,90,62,34,29.84,29.67,3,0,4,0.03
2013-8-26,81.1,71.2,58.3,56.5,51.7,47.7,88,52,32,29.91,29.82,8,0,9,0.01
2013-8-27,85.3,67.7,51.3,55.9,50.5,47.1,88,58,29,29.92,29.73,3,0,3,0.00
2013-8-28,88.3,70.2,56.3,56.8,51.5,47.1,83,55,25,29.81,29.70,2,0,5,0.00
2013-8-29,84.4,67.7,55.0,59.2,53.1,48.4,84,62,31,29.94,29.79,4,0,6,0.00
2013-8-30,82.4,69.2,57.7,58.5,50.5,43.3,86,54,28,30.04,29.93,4,0,10,0.01
2013-8-31,57.2,51.5,47.1,45.5,43.8,42.4,87,75,62,30.04,29.98,0,0,0,0.00